Time;durP1;ratioP1;P1;durP2;ratioP2;P2;SDS_P1;SDS_P2;PMS_P1;PMS_P2;Temp;Humidity;BMP_temperature;BMP_pressure;BME280_temperature;BME280_humidity;BME280_pressure;Samples;Min_cycle;Max_cycle;Signal;HPM_P1;HPM_P2
2023/10/06 00:00:40;;;;;;;13.30;8.07;;;13.40;99.90;;;;;;5014739;28;20484;-69
2023/10/06 00:03:10;;;;;;;12.37;7.70;;;13.50;99.90;;;;;;4997873;28;20476;-70
2023/10/06 00:05:42;;;;;;;10.83;6.90;;;13.30;99.90;;;;;;5015538;28;20430;-68
2023/10/06 00:08:16;;;;;;;9.13;7.03;;;13.30;99.90;;;;;;5014585;28;20945;-68
2023/10/06 00:10:46;;;;;;;12.20;6.40;;;13.30;99.90;;;;;;5014195;28;20465;-70
2023/10/06 00:13:18;;;;;;;14.20;7.43;;;13.50;99.90;;;;;;5017909;28;20421;-70
2023/10/06 00:15:49;;;;;;;7.50;5.80;;;13.10;99.90;;;;;;5017047;28;20433;-71
2023/10/06 00:18:20;;;;;;;8.67;6.30;;;13.30;99.90;;;;;;5017130;28;20429;-69
2023/10/06 00:20:56;;;;;;;10.50;7.53;;;13.50;99.90;;;;;;5015275;28;20917;-70
2023/10/06 00:23:23;;;;;;;10.77;7.87;;;13.30;99.90;;;;;;5014742;28;20544;-69
2023/10/06 00:26:02;;;;;;;9.50;6.57;;;13.40;99.90;;;;;;5014419;28;20421;-70
2023/10/06 00:28:32;;;;;;;8.93;6.87;;;;;;;;;;5013850;28;20453;-70
2023/10/06 00:31:08;;;;;;;7.30;5.60;;;13.40;99.90;;;;;;5013371;28;20727;-70
2023/10/06 00:33:42;;;;;;;9.00;6.43;;;13.30;99.90;;;;;;5013173;28;20429;-68
2023/10/06 00:36:13;;;;;;;10.70;7.43;;;13.50;99.90;;;;;;5013618;28;20445;-70
2023/10/06 00:38:42;;;;;;;9.33;6.90;;;13.30;99.90;;;;;;5014029;28;20949;-70
2023/10/06 00:41:14;;;;;;;9.20;6.87;;;;;;;;;;5014850;28;20884;-71
2023/10/06 00:43:43;;;;;;;10.13;8.13;;;13.40;99.90;;;;;;5000810;28;20557;-70
2023/10/06 00:46:12;;;;;;;9.10;7.23;;;13.50;99.90;;;;;;5017935;28;20429;-69
2023/10/06 00:48:41;;;;;;;7.53;6.73;;;13.40;99.90;;;;;;5017013;28;20495;-69
2023/10/06 00:51:16;;;;;;;9.13;6.53;;;13.40;99.90;;;;;;5017159;28;20425;-70
2023/10/06 00:53:44;;;;;;;11.50;5.57;;;13.90;99.90;;;;;;5013943;28;20480;-70
2023/10/06 00:56:14;;;;;;;10.10;7.00;;;13.40;99.90;;;;;;5013637;28;20433;-69
2023/10/06 00:58:42;;;;;;;8.63;7.00;;;13.20;99.90;;;;;;5014135;28;20507;-70
2023/10/06 01:01:12;;;;;;;11.03;6.90;;;13.30;99.90;;;;;;5013140;28;20681;-71
2023/10/06 01:03:42;;;;;;;11.23;5.87;;;13.40;99.90;;;;;;4995444;28;20484;-70
2023/10/06 01:06:14;;;;;;;12.40;7.57;;;13.30;99.90;;;;;;5013478;28;20426;-69
2023/10/06 01:08:48;;;;;;;8.23;5.63;;;13.70;99.90;;;;;;5013284;28;20432;-71
2023/10/06 01:11:17;;;;;;;10.60;7.60;;;13.30;99.90;;;;;;5013370;28;20437;-70
2023/10/06 01:13:56;;;;;;;18.10;7.53;;;13.20;99.90;;;;;;5013257;28;20441;-68
2023/10/06 01:16:30;;;;;;;12.47;7.50;;;13.30;99.90;;;;;;5013092;28;20543;-70
2023/10/06 01:19:14;;;;;;;10.27;6.97;;;13.30;99.90;;;;;;5022447;28;20471;-70
2023/10/06 01:21:45;;;;;;;13.77;6.97;;;13.50;99.90;;;;;;5015492;28;20483;-68
2023/10/06 01:24:14;;;;;;;10.10;6.90;;;13.40;99.90;;;;;;5014567;28;20552;-70
2023/10/06 01:26:42;;;;;;;11.10;6.33;;;;;;;;;;4997137;28;20465;-69
2023/10/06 01:29:16;;;;;;;9.23;8.23;;;13.40;99.90;;;;;;5013697;28;20469;-68
2023/10/06 01:31:44;;;;;;;13.87;7.13;;;14.20;99.90;;;;;;5013335;28;20517;-68
2023/10/06 01:34:12;;;;;;;15.20;8.63;;;13.30;99.90;;;;;;5013776;28;20433;-68
2023/10/06 01:36:42;;;;;;;11.73;6.90;;;13.30;99.90;;;;;;5013583;28;20465;-68
2023/10/06 01:39:17;;;;;;;12.40;7.03;;;13.50;99.90;;;;;;5013487;28;20828;-69
2023/10/06 01:41:46;;;;;;;13.63;7.53;;;13.50;99.90;;;;;;5012993;28;20473;-69
2023/10/06 01:44:13;;;;;;;13.20;8.10;;;;;;;;;;5014054;28;20497;-71
2023/10/06 01:46:53;;;;;;;11.60;6.87;;;13.40;99.90;;;;;;5015284;28;20941;-71
2023/10/06 01:49:23;;;;;;;13.03;7.70;;;13.30;99.90;;;;;;5013602;28;20869;-71
2023/10/06 01:51:51;;;;;;;13.57;8.40;;;13.40;99.90;;;;;;5013785;28;20429;-70
2023/10/06 01:54:27;;;;;;;11.10;8.10;;;13.30;99.90;;;;;;5012630;28;20914;-70
2023/10/06 01:56:56;;;;;;;9.30;6.73;;;13.80;99.90;;;;;;5012715;28;20838;-71
2023/10/06 01:59:26;;;;;;;19.67;8.33;;;13.40;99.90;;;;;;5013089;28;20468;-69
2023/10/06 02:01:54;;;;;;;10.13;7.00;;;13.40;99.90;;;;;;5011459;28;20479;-68
2023/10/06 02:04:25;;;;;;;10.70;7.10;;;13.50;99.90;;;;;;5012231;28;20476;-69
2023/10/06 02:06:53;;;;;;;14.60;6.53;;;13.60;99.90;;;;;;5012589;28;20560;-69
2023/10/06 02:09:25;;;;;;;11.60;8.20;;;13.40;99.90;;;;;;4994890;28;20869;-69
2023/10/06 02:11:55;;;;;;;11.50;8.10;;;;;;;;;;5012182;28;20434;-69
2023/10/06 02:14:23;;;;;;;11.90;7.03;;;13.70;99.90;;;;;;5012174;28;20445;-68
2023/10/06 02:16:55;;;;;;;11.77;7.13;;;13.60;99.90;;;;;;5012718;28;20467;-68
2023/10/06 02:19:22;;;;;;;11.63;7.50;;;13.60;99.90;;;;;;5013123;28;20472;-69
2023/10/06 02:21:52;;;;;;;10.97;7.80;;;13.70;99.90;;;;;;5013838;28;20489;-68
2023/10/06 02:24:21;;;;;;;12.40;9.20;;;13.70;99.90;;;;;;5012876;28;20961;-69
2023/10/06 02:26:57;;;;;;;17.50;7.97;;;13.60;99.90;;;;;;5011929;28;20794;-67
2023/10/06 02:29:26;;;;;;;12.07;8.07;;;13.70;99.90;;;;;;5011804;28;20527;-69
2023/10/06 02:32:00;;;;;;;11.80;8.40;;;13.70;99.90;;;;;;5011279;28;20428;-69
2023/10/06 02:34:35;;;;;;;11.93;7.73;;;13.70;99.90;;;;;;5011509;28;20421;-69
2023/10/06 02:37:06;;;;;;;13.00;7.50;;;13.90;99.90;;;;;;5011894;28;20429;-69
2023/10/06 02:39:37;;;;;;;14.00;9.67;;;13.80;99.90;;;;;;5011948;28;20469;-69
2023/10/06 02:42:13;;;;;;;13.43;8.47;;;13.70;99.90;;;;;;5012183;28;20469;-69
2023/10/06 02:44:44;;;;;;;10.93;8.37;;;13.70;99.90;;;;;;5012043;28;20475;-69
2023/10/06 02:47:13;;;;;;;13.47;8.13;;;13.70;99.90;;;;;;5011862;28;20429;-67
2023/10/06 02:49:48;;;;;;;11.80;7.57;;;14.10;99.90;;;;;;5011663;28;20492;-68
2023/10/06 02:52:22;;;;;;;18.83;8.50;;;13.80;99.90;;;;;;5011786;28;20444;-67
2023/10/06 02:55:05;;;;;;;16.53;8.97;;;13.80;99.90;;;;;;5012147;28;20425;-70
2023/10/06 02:57:36;;;;;;;10.07;7.13;;;14.00;99.90;;;;;;5007521;28;20488;-70
2023/10/06 03:02:45;;;;;;;13.00;9.00;;;;;;;;;;5011338;28;20455;-68
2023/10/06 03:05:17;;;;;;;10.73;6.80;;;13.90;99.90;;;;;;5011820;28;20879;-68
2023/10/06 03:07:45;;;;;;;10.90;8.40;;;;;;;;;;5011459;28;21006;-67
2023/10/06 03:10:27;;;;;;;9.90;7.47;;;13.90;99.90;;;;;;5012248;28;20469;-69
2023/10/06 03:12:57;;;;;;;13.87;10.00;;;13.80;99.90;;;;;;5012190;28;20918;-68
2023/10/06 03:15:35;;;;;;;12.83;8.03;;;13.90;99.90;;;;;;5011878;28;20434;-68
2023/10/06 03:18:05;;;;;;;16.10;9.13;;;13.80;99.90;;;;;;5011743;28;20447;-67
2023/10/06 03:20:40;;;;;;;16.83;9.07;;;13.80;99.90;;;;;;5011755;28;20475;-67
2023/10/06 03:23:24;;;;;;;20.57;9.30;;;14.00;99.90;;;;;;5011625;28;20788;-66
2023/10/06 03:25:54;;;;;;;13.80;10.30;;;14.00;99.90;;;;;;5011046;28;20472;-69
2023/10/06 03:28:32;;;;;;;14.83;8.50;;;14.30;99.90;;;;;;5011418;28;20511;-68
2023/10/06 03:31:03;;;;;;;12.87;8.80;;;14.00;99.90;;;;;;5011610;28;20440;-69
2023/10/06 03:33:33;;;;;;;13.80;8.67;;;14.00;99.90;;;;;;5011321;28;20429;-69
2023/10/06 03:36:01;;;;;;;13.93;8.93;;;14.00;99.90;;;;;;5011929;28;20441;-67
2023/10/06 03:38:35;;;;;;;14.60;9.40;;;14.20;99.90;;;;;;5011811;28;20438;-69
2023/10/06 03:41:25;;;;;;;12.23;8.37;;;14.10;99.90;;;;;;5009744;28;20839;-68
2023/10/06 03:44:00;;;;;;;18.30;8.87;;;14.40;99.90;;;;;;5012584;28;20434;-69
2023/10/06 03:46:35;;;;;;;14.23;10.30;;;14.00;99.90;;;;;;5014718;28;20444;-70
2023/10/06 03:49:03;;;;;;;14.53;9.33;;;14.10;99.90;;;;;;5014857;28;20510;-69
2023/10/06 03:51:37;;;;;;;14.67;10.00;;;14.20;99.90;;;;;;5014989;28;20484;-68
2023/10/06 03:54:06;;;;;;;20.00;10.43;;;13.80;99.90;;;;;;5014748;28;20501;-68
2023/10/06 03:56:34;;;;;;;18.13;9.03;;;14.30;99.90;;;;;;4997110;28;20458;-70
2023/10/06 03:59:12;;;;;;;14.10;9.77;;;14.40;99.90;;;;;;4995204;28;20458;-68
2023/10/06 04:01:44;;;;;;;16.70;10.90;;;14.20;99.90;;;;;;4995927;28;20491;-69
2023/10/06 04:04:12;;;;;;;13.57;9.17;;;14.60;99.90;;;;;;5014609;28;20489;-69
2023/10/06 04:06:42;;;;;;;16.07;10.20;;;14.40;99.90;;;;;;5015212;28;20476;-69
2023/10/06 04:09:11;;;;;;;13.20;9.10;;;;;;;;;;5015158;28;20593;-68
2023/10/06 04:11:48;;;;;;;12.60;9.10;;;14.50;99.90;;;;;;5016160;28;20793;-68
2023/10/06 04:14:49;;;;;;;14.03;9.37;;;14.80;99.90;;;;;;5015906;28;20512;-69
2023/10/06 04:17:21;;;;;;;19.27;10.50;;;14.50;99.90;;;;;;5015914;28;20936;-68
2023/10/06 04:19:48;;;;;;;15.40;10.70;;;14.10;99.90;;;;;;5015887;28;20501;-69
2023/10/06 04:22:21;;;;;;;16.80;10.77;;;14.20;99.90;;;;;;5015472;28;20517;-68
2023/10/06 04:24:49;;;;;;;19.63;12.17;;;14.20;99.90;;;;;;5014943;28;20556;-69
2023/10/06 04:27:18;;;;;;;15.33;10.80;;;14.20;99.90;;;;;;5015151;28;20500;-69
2023/10/06 04:29:45;;;;;;;15.83;11.40;;;14.40;99.90;;;;;;5016422;28;20473;-69
2023/10/06 04:32:31;;;;;;;22.23;11.70;;;14.10;99.90;;;;;;4998840;28;20585;-69
2023/10/06 04:35:00;;;;;;;25.03;15.90;;;14.70;99.90;;;;;;5016710;28;20429;-69
2023/10/06 04:37:29;;;;;;;18.30;11.70;;;14.20;99.90;;;;;;5015574;28;20551;-69
2023/10/06 04:40:07;;;;;;;21.63;11.70;;;14.10;99.90;;;;;;5015175;28;20473;-68
2023/10/06 04:42:52;;;;;;;17.80;11.43;;;14.30;99.90;;;;;;5015054;28;20528;-69
2023/10/06 04:45:19;;;;;;;25.03;13.70;;;14.20;99.90;;;;;;5015416;28;20465;-69
2023/10/06 04:47:46;;;;;;;16.87;12.33;;;14.30;99.90;;;;;;5015108;28;20994;-68
2023/10/06 04:50:13;;;;;;;15.33;11.03;;;14.20;99.90;;;;;;5016367;28;20519;-69
2023/10/06 04:52:46;;;;;;;18.30;11.77;;;14.50;99.90;;;;;;4998121;28;21008;-68
2023/10/06 04:55:14;;;;;;;26.17;14.23;;;14.10;99.90;;;;;;5014343;28;20430;-69
2023/10/06 04:57:42;;;;;;;22.00;13.03;;;14.00;99.90;;;;;;5015443;28;20794;-69
2023/10/06 05:00:27;;;;;;;17.80;11.03;;;14.20;99.90;;;;;;5015191;28;20555;-69
2023/10/06 05:02:55;;;;;;;21.77;12.40;;;14.30;99.90;;;;;;5015450;28;20513;-68
2023/10/06 05:05:33;;;;;;;18.17;12.83;;;14.00;99.90;;;;;;4997346;28;20481;-69
2023/10/06 05:08:02;;;;;;;20.77;13.03;;;14.20;99.90;;;;;;5015883;28;20425;-68
2023/10/06 05:10:30;;;;;;;21.07;12.87;;;14.00;99.90;;;;;;5016395;28;20457;-70
2023/10/06 05:13:14;;;;;;;22.20;14.90;;;13.80;99.90;;;;;;5014658;28;20890;-69
2023/10/06 05:15:43;;;;;;;19.23;12.93;;;13.90;99.90;;;;;;5014111;28;20505;-67
2023/10/06 05:18:15;;;;;;;26.87;12.87;;;14.30;99.90;;;;;;5014656;28;20433;-69
2023/10/06 05:21:06;;;;;;;21.53;14.27;;;13.70;99.90;;;;;;5015845;28;20465;-68
2023/10/06 05:23:34;;;;;;;23.43;14.53;;;14.10;99.90;;;;;;5015832;28;20429;-68
2023/10/06 05:26:04;;;;;;;22.10;14.10;;;13.80;99.90;;;;;;5014339;28;20484;-68
2023/10/06 05:31:03;;;;;;;24.67;12.27;;;13.80;99.90;;;;;;5039579;28;20480;-58
2023/10/06 05:33:30;;;;;;;19.83;13.00;;;13.80;99.90;;;;;;5039327;28;20554;-60
2023/10/06 05:36:00;;;;;;;21.93;14.53;;;13.40;99.90;;;;;;5040249;28;20475;-59
2023/10/06 05:38:30;;;;;;;28.40;13.33;;;13.80;99.90;;;;;;5039194;28;20468;-58
2023/10/06 05:41:01;;;;;;;22.70;12.60;;;13.80;99.90;;;;;;5039996;28;20444;-58
2023/10/06 05:43:31;;;;;;;21.03;13.13;;;13.50;99.90;;;;;;5039342;28;21055;-58
2023/10/06 05:45:58;;;;;;;23.87;15.37;;;13.70;99.90;;;;;;5043009;28;20472;-58
2023/10/06 05:48:30;;;;;;;23.17;14.30;;;13.90;99.90;;;;;;5044991;28;20448;-57
2023/10/06 05:51:04;;;;;;;18.13;14.53;;;13.70;99.90;;;;;;5045181;28;20444;-57
2023/10/06 05:53:38;;;;;;;21.47;13.30;;;13.80;99.90;;;;;;5045234;28;20436;-59
2023/10/06 05:56:07;;;;;;;32.90;13.73;;;;;;;;;;5043169;28;20584;-58
2023/10/06 05:58:37;;;;;;;20.63;14.97;;;14.00;99.90;;;;;;5044322;28;20944;-58
2023/10/06 06:01:06;;;;;;;25.50;14.93;;;14.10;99.90;;;;;;5043900;28;20508;-60
2023/10/06 06:03:35;;;;;;;22.23;12.70;;;13.60;99.90;;;;;;5046181;28;20475;-59
2023/10/06 06:06:09;;;;;;;22.27;13.17;;;14.00;99.90;;;;;;5045260;28;20551;-57
2023/10/06 06:08:39;;;;;;;19.27;12.53;;;14.10;99.90;;;;;;5045662;28;20768;-58
2023/10/06 06:11:06;;;;;;;25.33;14.00;;;14.30;99.90;;;;;;5042668;28;20522;-59
2023/10/06 06:13:37;;;;;;;16.83;13.17;;;13.90;99.90;;;;;;5037668;28;20476;-61
2023/10/06 06:16:05;;;;;;;19.00;13.70;;;14.10;99.90;;;;;;5043126;28;20456;-58
2023/10/06 06:18:34;;;;;;;17.40;13.27;;;14.10;99.90;;;;;;5044224;28;20496;-58
2023/10/06 06:21:02;;;;;;;24.47;13.63;;;14.10;99.90;;;;;;5044777;28;20487;-60
2023/10/06 06:23:33;;;;;;;17.03;12.60;;;14.20;99.90;;;;;;5046855;28;20792;-55
2023/10/06 06:26:00;;;;;;;19.20;12.10;;;14.00;99.90;;;;;;5038003;28;20472;-58
2023/10/06 06:28:27;;;;;;;26.07;13.57;;;14.10;99.90;;;;;;5036955;28;20512;-58
2023/10/06 06:30:54;;;;;;;21.03;14.00;;;14.50;99.90;;;;;;5031925;28;20460;-59
2023/10/06 06:33:22;;;;;;;21.13;13.53;;;14.40;99.90;;;;;;5030038;28;20523;-57
2023/10/06 06:35:51;;;;;;;20.93;12.93;;;14.50;99.90;;;;;;5035923;28;20467;-58
2023/10/06 06:38:18;;;;;;;16.67;12.27;;;;;;;;;;5032529;28;20471;-57
2023/10/06 06:40:45;;;;;;;26.60;12.73;;;14.60;99.90;;;;;;5032907;28;20480;-59
2023/10/06 06:43:12;;;;;;;21.60;12.60;;;15.10;99.90;;;;;;5028385;28;20445;-57
2023/10/06 06:45:40;;;;;;;18.77;12.80;;;14.70;99.90;;;;;;5035721;28;20511;-59
2023/10/06 06:48:12;;;;;;;16.70;11.60;;;14.60;99.90;;;;;;5037674;28;20780;-59
2023/10/06 06:50:42;;;;;;;18.43;11.40;;;14.70;99.90;;;;;;5033757;28;20502;-60
2023/10/06 06:53:11;;;;;;;19.57;13.33;;;14.90;99.90;;;;;;5034062;28;20470;-60
2023/10/06 06:55:39;;;;;;;19.53;12.17;;;15.00;99.90;;;;;;5036840;28;20452;-59
2023/10/06 06:58:10;;;;;;;18.30;11.60;;;;;;;;;;5031510;28;20551;-59
2023/10/06 07:00:39;;;;;;;19.40;12.03;;;14.70;99.90;;;;;;5029464;28;20528;-58
2023/10/06 07:03:07;;;;;;;23.10;11.17;;;;;;;;;;5037783;28;20467;-60
2023/10/06 07:05:37;;;;;;;17.17;11.47;;;14.90;99.90;;;;;;5042106;28;20507;-58
2023/10/06 07:08:04;;;;;;;18.33;11.57;;;15.00;99.90;;;;;;5039786;28;20456;-56
2023/10/06 07:10:38;;;;;;;17.20;10.73;;;15.30;99.90;;;;;;5040223;28;20472;-55
2023/10/06 07:13:05;;;;;;;15.87;11.23;;;;;;;;;;5039813;28;20452;-59
2023/10/06 07:15:33;;;;;;;16.83;10.90;;;15.00;99.90;;;;;;5041818;28;20457;-58
2023/10/06 07:18:00;;;;;;;14.23;10.87;;;15.00;99.90;;;;;;5041296;28;20448;-57
2023/10/06 07:20:29;;;;;;;12.37;9.93;;;15.20;99.90;;;;;;5040427;28;20505;-58
2023/10/06 07:22:57;;;;;;;18.33;9.90;;;15.10;99.90;;;;;;5043760;28;20483;-58
2023/10/06 07:25:26;;;;;;;21.70;10.47;;;15.40;99.90;;;;;;5038997;28;20515;-61
2023/10/06 07:27:57;;;;;;;16.70;10.73;;;15.70;99.90;;;;;;5035379;28;20469;-59
2023/10/06 07:30:34;;;;;;;10.70;8.70;;;15.50;99.90;;;;;;5034442;28;20476;-58
2023/10/06 07:33:02;;;;;;;19.50;10.53;;;15.40;99.90;;;;;;5045310;28;20444;-59
2023/10/06 07:35:37;;;;;;;17.60;9.93;;;15.50;99.90;;;;;;5033788;28;20472;-58
2023/10/06 07:38:04;;;;;;;13.03;9.87;;;;;;;;;;5041096;28;20444;-60
2023/10/06 07:40:31;;;;;;;14.10;10.00;;;15.30;99.90;;;;;;5044012;28;20578;-59
2023/10/06 07:42:59;;;;;;;31.90;11.23;;;16.20;99.90;;;;;;5041641;28;20448;-47
2023/10/06 07:45:26;;;;;;;13.90;9.07;;;15.50;99.90;;;;;;5043756;28;20551;-50
2023/10/06 07:47:54;;;;;;;14.33;8.87;;;15.90;99.90;;;;;;5036210;28;20452;-49
2023/10/06 07:50:21;;;;;;;14.97;10.93;;;;;;;;;;5042852;28;20460;-47
2023/10/06 07:52:48;;;;;;;18.97;9.77;;;15.80;99.90;;;;;;5041641;28;20472;-44
2023/10/06 07:55:21;;;;;;;12.70;9.50;;;16.20;99.90;;;;;;5044592;28;20444;-50
2023/10/06 07:57:48;;;;;;;17.10;9.33;;;16.20;99.90;;;;;;5044443;28;20472;-47
2023/10/06 08:00:24;;;;;;;17.87;9.40;;;15.80;99.90;;;;;;5044112;28;20478;-47
2023/10/06 08:02:51;;;;;;;13.27;7.93;;;16.10;99.90;;;;;;5028943;28;20483;-60
2023/10/06 08:05:19;;;;;;;17.80;11.83;;;16.30;99.90;;;;;;5043821;28;20475;-61
2023/10/06 08:07:46;;;;;;;12.80;9.20;;;16.80;99.90;;;;;;5035866;28;20487;-60
2023/10/06 08:10:14;;;;;;;14.00;9.63;;;16.50;99.90;;;;;;5039534;28;20464;-59
2023/10/06 08:12:43;;;;;;;15.97;8.47;;;16.50;99.90;;;;;;5041222;28;20440;-61
2023/10/06 08:15:11;;;;;;;11.03;7.60;;;16.70;99.90;;;;;;5040212;28;20471;-60
2023/10/06 08:17:39;;;;;;;9.40;7.10;;;16.90;99.90;;;;;;5037439;28;20437;-59
2023/10/06 08:20:11;;;;;;;9.10;7.13;;;16.90;99.90;;;;;;5031142;28;20484;-60
2023/10/06 08:22:39;;;;;;;20.87;7.70;;;17.10;99.90;;;;;;5031506;28;20952;-59
2023/10/06 08:25:09;;;;;;;11.53;7.50;;;17.10;99.90;;;;;;5034825;28;20496;-58
2023/10/06 08:27:36;;;;;;;73.47;26.03;;;17.30;99.90;;;;;;5025253;28;20460;-56
2023/10/06 08:30:07;;;;;;;13.77;8.90;;;;;;;;;;5026603;28;20532;-60
2023/10/06 08:32:34;;;;;;;12.77;7.23;;;17.40;99.90;;;;;;5032979;28;21007;-60
2023/10/06 08:35:12;;;;;;;14.60;7.40;;;17.30;99.90;;;;;;5041976;28;20535;-60
2023/10/06 08:37:40;;;;;;;11.50;7.60;;;17.90;99.90;;;;;;5041337;28;20479;-59
2023/10/06 08:40:09;;;;;;;11.47;6.63;;;18.00;99.90;;;;;;5034853;28;20464;-56
2023/10/06 08:42:37;;;;;;;10.80;7.30;;;18.50;99.90;;;;;;5029512;28;20480;-59
2023/10/06 08:45:05;;;;;;;9.83;5.90;;;18.70;99.90;;;;;;5031543;28;20838;-60
2023/10/06 08:47:35;;;;;;;8.00;6.40;;;18.60;99.90;;;;;;5031043;28;20844;-58
2023/10/06 08:50:04;;;;;;;14.27;7.07;;;18.70;99.90;;;;;;5032048;28;20475;-59
2023/10/06 08:52:32;;;;;;;17.43;7.53;;;18.70;99.90;;;;;;5038441;28;20482;-59
2023/10/06 08:55:01;;;;;;;11.50;7.20;;;18.90;99.90;;;;;;5039548;28;20476;-58
2023/10/06 08:57:30;;;;;;;11.77;6.33;;;19.30;99.90;;;;;;5023565;28;20457;-59
2023/10/06 08:59:57;;;;;;;12.87;7.57;;;20.00;99.90;;;;;;5035161;28;20461;-58
2023/10/06 09:02:25;;;;;;;12.90;8.57;;;19.90;99.90;;;;;;5031726;28;20454;-60
2023/10/06 09:04:54;;;;;;;10.07;7.20;;;;;;;;;;5022073;28;20441;-59
2023/10/06 09:07:22;;;;;;;6.93;4.90;;;19.10;99.90;;;;;;5029795;28;20476;-61
2023/10/06 09:09:49;;;;;;;7.80;5.67;;;19.10;99.90;;;;;;5040915;28;20494;-60
2023/10/06 09:12:28;;;;;;;8.90;6.43;;;18.40;99.90;;;;;;5048208;28;20463;-61
2023/10/06 09:14:56;;;;;;;11.60;4.93;;;18.50;99.90;;;;;;5060056;28;20431;-60
2023/10/06 09:17:31;;;;;;;7.37;4.60;;;18.20;99.90;;;;;;5060401;28;20463;-61
2023/10/06 09:19:58;;;;;;;7.73;4.97;;;;;;;;;;5045230;28;20523;-58
2023/10/06 09:22:30;;;;;;;8.23;5.57;;;18.10;99.90;;;;;;5040525;28;20451;-59
2023/10/06 09:24:59;;;;;;;4.60;4.07;;;18.10;99.90;;;;;;5040689;28;21066;-59
2023/10/06 09:27:28;;;;;;;5.80;4.30;;;18.40;99.90;;;;;;5021853;28;20574;-63
2023/10/06 09:30:05;;;;;;;6.57;4.47;;;18.40;99.90;;;;;;5020198;28;20841;-62
2023/10/06 09:32:32;;;;;;;7.90;4.37;;;18.40;99.90;;;;;;5020626;28;20464;-59
2023/10/06 09:34:59;;;;;;;8.97;3.83;;;18.40;99.90;;;;;;5020057;28;20559;-61
2023/10/06 09:37:27;;;;;;;5.80;4.47;;;18.90;99.90;;;;;;5030913;28;21130;-58
2023/10/06 09:39:57;;;;;;;7.60;4.47;;;18.70;99.90;;;;;;5028361;28;20499;-61
2023/10/06 09:42:28;;;;;;;7.27;4.70;;;18.80;99.90;;;;;;5037248;28;20515;-60
2023/10/06 09:45:07;;;;;;;6.07;5.17;;;19.70;99.90;;;;;;5046973;28;20448;-61
2023/10/06 09:47:37;;;;;;;6.87;4.77;;;19.70;99.90;;;;;;5037422;28;20500;-62
2023/10/06 09:50:08;;;;;;;4.17;3.77;;;19.90;99.90;;;;;;5034994;28;20456;-59
2023/10/06 09:52:42;;;;;;;9.70;4.70;;;19.30;99.90;;;;;;5039785;28;20421;-61
2023/10/06 09:55:10;;;;;;;6.53;3.67;;;19.70;99.90;;;;;;5039139;28;21033;-64
2023/10/06 09:57:39;;;;;;;5.70;3.87;;;20.20;99.90;;;;;;5041907;28;20487;-62
2023/10/06 10:00:15;;;;;;;5.93;3.87;;;20.00;99.90;;;;;;5045899;28;20810;-61
2023/10/06 10:02:44;;;;;;;10.53;3.63;;;20.40;99.90;;;;;;5019630;28;20560;-62
2023/10/06 10:05:13;;;;;;;5.50;3.60;;;20.40;99.90;;;;;;5026676;28;20478;-61
2023/10/06 10:07:48;;;;;;;6.10;4.33;;;20.20;99.90;;;;;;5037719;28;20561;-61
2023/10/06 10:10:18;;;;;;;12.43;4.33;;;20.00;99.90;;;;;;5038568;28;20447;-61
2023/10/06 10:13:08;;;;;;;5.70;3.40;;;20.00;99.90;;;;;;5038731;28;20444;-58
2023/10/06 10:15:47;;;;;;;7.60;3.20;;;19.70;99.90;;;;;;5038345;28;20472;-60
2023/10/06 10:18:24;;;;;;;5.00;3.13;;;19.50;99.90;;;;;;5038860;28;20558;-63
2023/10/06 10:20:52;;;;;;;7.70;3.90;;;19.30;99.90;;;;;;5021295;28;20492;-56
2023/10/06 10:23:21;;;;;;;4.17;2.60;;;18.80;99.90;;;;;;5046664;28;20982;-62
2023/10/06 10:25:52;;;;;;;4.93;3.17;;;19.40;99.90;;;;;;5044601;28;20521;-59
2023/10/06 10:28:20;;;;;;;11.13;3.10;;;18.70;99.90;;;;;;5043008;28;20513;-56
2023/10/06 10:30:56;;;;;;;4.73;2.57;;;18.80;99.90;;;;;;5039742;28;20482;-59
2023/10/06 10:33:24;;;;;;;4.07;2.30;;;18.70;99.90;;;;;;5038925;28;20515;-61
2023/10/06 10:36:24;;;;;;;8.07;3.30;;;18.60;99.90;;;;;;5042720;28;20535;-55
2023/10/06 10:39:09;;;;;;;7.33;2.73;;;18.50;99.90;;;;;;5033167;28;20857;-61
2023/10/06 10:41:37;;;;;;;4.97;2.90;;;18.60;99.90;;;;;;5050880;28;20497;-60
2023/10/06 10:44:11;;;;;;;4.43;2.57;;;18.30;99.90;;;;;;5047268;28;20444;-61
2023/10/06 10:46:42;;;;;;;5.63;2.90;;;18.60;99.90;;;;;;5040848;28;20524;-60
2023/10/06 10:49:11;;;;;;;5.03;3.63;;;18.40;99.90;;;;;;5045337;28;20924;-63
2023/10/06 10:51:54;;;;;;;4.30;2.10;;;18.40;99.90;;;;;;5044108;28;20466;-59
2023/10/06 10:54:26;;;;;;;7.50;2.77;;;18.30;99.90;;;;;;5035390;28;20609;-62
2023/10/06 10:56:53;;;;;;;5.53;2.60;;;;;;;;;;5042839;28;20431;-63
2023/10/06 10:59:22;;;;;;;4.87;2.63;;;18.20;99.90;;;;;;5042753;28;20549;-62
2023/10/06 11:01:53;;;;;;;7.00;2.67;;;18.00;99.90;;;;;;5047329;28;20448;-60
2023/10/06 11:04:31;;;;;;;3.60;2.57;;;18.20;99.90;;;;;;5047904;28;20456;-59
2023/10/06 11:07:04;;;;;;;6.77;2.80;;;18.00;99.90;;;;;;5047519;28;20471;-60
2023/10/06 11:09:40;;;;;;;4.00;2.20;;;18.20;99.90;;;;;;5047770;28;20444;-61
2023/10/06 11:12:21;;;;;;;9.70;4.63;;;18.10;99.90;;;;;;5050366;28;20462;-62
2023/10/06 11:14:51;;;;;;;3.47;2.17;;;18.30;99.90;;;;;;5054057;28;20444;-61
2023/10/06 11:17:20;;;;;;;4.90;2.73;;;18.20;99.90;;;;;;5044229;28;20467;-60
2023/10/06 11:19:47;;;;;;;5.63;3.37;;;18.40;99.90;;;;;;5047928;28;20463;-62
2023/10/06 11:22:19;;;;;;;4.40;2.57;;;18.40;99.90;;;;;;5046461;28;20880;-60
2023/10/06 11:24:49;;;;;;;4.60;1.90;;;18.60;99.90;;;;;;5063125;28;20431;-57
2023/10/06 11:27:21;;;;;;;4.07;2.00;;;18.80;99.90;;;;;;5062082;28;20558;-61
2023/10/06 11:29:51;;;;;;;6.73;2.70;;;18.50;99.90;;;;;;5058903;28;20450;-61
2023/10/06 11:32:19;;;;;;;4.00;2.80;;;;;;;;;;5050438;28;20439;-61
2023/10/06 11:34:48;;;;;;;3.90;2.30;;;19.00;99.90;;;;;;5050832;28;20494;-60
2023/10/06 11:37:17;;;;;;;11.87;3.30;;;18.60;99.90;;;;;;5047734;28;20443;-59
2023/10/06 11:39:44;;;;;;;8.53;3.03;;;19.00;99.90;;;;;;5049312;28;21002;-60
2023/10/06 11:42:36;;;;;;;4.17;2.77;;;18.70;99.90;;;;;;5050270;28;20550;-60
2023/10/06 11:45:11;;;;;;;4.40;2.20;;;16.60;99.90;;;;;;5050237;28;20475;-61
2023/10/06 11:47:41;;;;;;;3.43;2.27;;;18.90;99.90;;;;;;5052190;28;20470;-60
2023/10/06 11:50:21;;;;;;;5.13;4.63;;;19.00;99.90;;;;;;5047303;28;20435;-61
2023/10/06 11:52:48;;;;;;;3.13;2.40;;;19.10;99.90;;;;;;5042930;28;20440;-60
2023/10/06 11:55:23;;;;;;;5.10;2.13;;;19.10;99.90;;;;;;5030408;28;20764;-59
2023/10/06 11:57:52;;;;;;;3.33;2.00;;;19.20;99.90;;;;;;5044168;28;20423;-61
2023/10/06 12:00:33;;;;;;;5.63;2.60;;;19.10;99.90;;;;;;5051633;28;20478;-60
2023/10/06 12:03:00;;;;;;;3.10;2.37;;;19.50;99.90;;;;;;5047789;28;20526;-60
2023/10/06 12:05:28;;;;;;;4.83;3.47;;;19.60;99.90;;;;;;5040576;28;20448;-58
2023/10/06 12:08:03;;;;;;;3.67;2.27;;;19.40;99.90;;;;;;5045657;28;20493;-56
2023/10/06 12:10:32;;;;;;;8.37;2.33;;;19.40;99.90;;;;;;5041778;28;20442;-61
2023/10/06 12:13:04;;;;;;;4.23;2.13;;;19.50;99.90;;;;;;5041102;28;20930;-61
2023/10/06 12:15:32;;;;;;;4.30;2.37;;;19.50;99.90;;;;;;5033685;28;20452;-60
2023/10/06 12:18:00;;;;;;;3.37;1.87;;;19.50;99.90;;;;;;5058798;28;20455;-59
2023/10/06 12:20:27;;;;;;;4.23;2.23;;;;;;;;;;5045645;28;20452;-60
2023/10/06 12:22:54;;;;;;;2.90;2.23;;;19.50;99.90;;;;;;5041134;28;20517;-60
2023/10/06 12:25:23;;;;;;;6.87;2.77;;;19.50;99.90;;;;;;5050281;28;20862;-60
2023/10/06 12:27:50;;;;;;;7.93;2.17;;;19.40;99.90;;;;;;5060980;28;21019;-59
2023/10/06 12:30:21;;;;;;;4.70;2.10;;;19.30;99.90;;;;;;5059016;28;20936;-61
2023/10/06 12:32:48;;;;;;;2.93;2.13;;;19.20;99.90;;;;;;5043284;28;20451;-60
2023/10/06 12:35:18;;;;;;;4.00;2.20;;;19.10;99.90;;;;;;5038632;28;20510;-57
2023/10/06 12:37:46;;;;;;;6.00;1.97;;;19.00;99.90;;;;;;5038748;28;20483;-56
2023/10/06 12:40:15;;;;;;;4.90;2.97;;;18.90;99.90;;;;;;5040644;28;20436;-61
2023/10/06 12:42:43;;;;;;;4.77;2.40;;;18.90;99.90;;;;;;5040665;28;20533;-59
2023/10/06 12:45:17;;;;;;;2.23;1.90;;;18.80;99.90;;;;;;5040875;28;20483;-60
2023/10/06 12:47:46;;;;;;;5.10;2.80;;;18.60;99.90;;;;;;5040475;28;20546;-60
2023/10/06 12:50:16;;;;;;;10.53;3.63;;;18.50;99.90;;;;;;5040397;28;20513;-62
2023/10/06 12:52:49;;;;;;;5.07;2.80;;;18.60;99.90;;;;;;5045132;28;20460;-61
2023/10/06 12:55:21;;;;;;;3.77;1.90;;;18.60;99.90;;;;;;5046742;28;20786;-61
2023/10/06 12:57:49;;;;;;;4.33;1.90;;;18.50;99.90;;;;;;5040415;28;20458;-61
2023/10/06 13:00:19;;;;;;;4.13;2.20;;;18.60;99.90;;;;;;5040163;28;20496;-59
2023/10/06 13:02:48;;;;;;;4.63;1.70;;;18.30;99.90;;;;;;5040875;28;20444;-61
2023/10/06 13:05:18;;;;;;;4.17;2.03;;;18.60;99.90;;;;;;5038802;28;20480;-61
2023/10/06 13:07:47;;;;;;;5.13;1.97;;;18.60;99.90;;;;;;5039538;28;20490;-60
2023/10/06 13:10:15;;;;;;;4.20;1.60;;;18.50;99.90;;;;;;5039624;28;20503;-61